sensor_id;sensor_type;location;lat;lon;timestamp;P1;durP1;ratioP1;P2;durP2;ratioP2
1404;SDS011;697;51.114;6.542;2023-12-07T00:01:53;19.40;;;15.90;;
1404;SDS011;697;51.114;6.542;2023-12-07T00:04:21;18.20;;;14.90;;
1404;SDS011;697;51.114;6.542;2023-12-07T00:06:48;22.47;;;15.20;;
1404;SDS011;697;51.114;6.542;2023-12-07T00:09:15;18.57;;;15.00;;
1404;SDS011;697;51.114;6.542;2023-12-07T00:11:41;22.00;;;15.57;;
1404;SDS011;697;51.114;6.542;2023-12-07T00:14:08;16.70;;;14.23;;
1404;SDS011;697;51.114;6.542;2023-12-07T00:16:35;20.10;;;15.20;;
1404;SDS011;697;51.114;6.542;2023-12-07T00:19:01;16.37;;;14.57;;
1404;SDS011;697;51.114;6.542;2023-12-07T00:21:29;22.43;;;16.23;;
1404;SDS011;697;51.114;6.542;2023-12-07T00:23:56;16.93;;;14.23;;
1404;SDS011;697;51.114;6.542;2023-12-07T00:26:23;18.00;;;15.23;;
1404;SDS011;697;51.114;6.542;2023-12-07T00:28:49;19.43;;;14.47;;
1404;SDS011;697;51.114;6.542;2023-12-07T00:31:16;19.87;;;14.00;;
1404;SDS011;697;51.114;6.542;2023-12-07T00:33:45;17.57;;;14.37;;
1404;SDS011;697;51.114;6.542;2023-12-07T00:36:12;18.70;;;13.70;;
1404;SDS011;697;51.114;6.542;2023-12-07T00:38:40;17.50;;;14.83;;
1404;SDS011;697;51.114;6.542;2023-12-07T00:41:07;15.77;;;13.47;;
1404;SDS011;697;51.114;6.542;2023-12-07T00:43:33;20.50;;;15.17;;
1404;SDS011;697;51.114;6.542;2023-12-07T00:46:00;16.47;;;13.80;;
1404;SDS011;697;51.114;6.542;2023-12-07T00:48:27;17.43;;;13.17;;
1404;SDS011;697;51.114;6.542;2023-12-07T00:50:54;16.33;;;13.73;;
1404;SDS011;697;51.114;6.542;2023-12-07T00:53:20;15.27;;;13.47;;
1404;SDS011;697;51.114;6.542;2023-12-07T00:55:48;17.77;;;14.77;;
1404;SDS011;697;51.114;6.542;2023-12-07T00:58:15;18.60;;;13.67;;
1404;SDS011;697;51.114;6.542;2023-12-07T01:00:42;20.83;;;14.20;;
1404;SDS011;697;51.114;6.542;2023-12-07T01:03:09;15.03;;;13.20;;
1404;SDS011;697;51.114;6.542;2023-12-07T01:05:36;18.03;;;13.97;;
1404;SDS011;697;51.114;6.542;2023-12-07T01:08:02;18.90;;;14.80;;
1404;SDS011;697;51.114;6.542;2023-12-07T01:10:29;15.80;;;13.00;;
1404;SDS011;697;51.114;6.542;2023-12-07T01:12:58;20.60;;;14.43;;
1404;SDS011;697;51.114;6.542;2023-12-07T01:15:25;17.97;;;13.63;;
1404;SDS011;697;51.114;6.542;2023-12-07T01:17:52;16.93;;;13.20;;
1404;SDS011;697;51.114;6.542;2023-12-07T01:20:18;16.33;;;13.30;;
1404;SDS011;697;51.114;6.542;2023-12-07T01:22:45;18.53;;;15.00;;
1404;SDS011;697;51.114;6.542;2023-12-07T01:25:12;18.83;;;12.90;;
1404;SDS011;697;51.114;6.542;2023-12-07T01:27:45;19.07;;;13.43;;
1404;SDS011;697;51.114;6.542;2023-12-07T01:30:13;17.90;;;13.70;;
1404;SDS011;697;51.114;6.542;2023-12-07T01:32:39;15.00;;;12.33;;
1404;SDS011;697;51.114;6.542;2023-12-07T01:35:07;14.77;;;12.53;;
1404;SDS011;697;51.114;6.542;2023-12-07T01:37:34;15.70;;;13.10;;
1404;SDS011;697;51.114;6.542;2023-12-07T01:40:01;18.33;;;13.40;;
1404;SDS011;697;51.114;6.542;2023-12-07T01:42:30;21.27;;;14.40;;
1404;SDS011;697;51.114;6.542;2023-12-07T01:44:57;19.60;;;14.20;;
1404;SDS011;697;51.114;6.542;2023-12-07T01:47:25;22.73;;;14.10;;
1404;SDS011;697;51.114;6.542;2023-12-07T01:49:52;20.37;;;13.83;;
1404;SDS011;697;51.114;6.542;2023-12-07T01:52:20;26.17;;;15.90;;
1404;SDS011;697;51.114;6.542;2023-12-07T01:54:48;19.40;;;14.70;;
1404;SDS011;697;51.114;6.542;2023-12-07T01:57:14;21.60;;;15.07;;
1404;SDS011;697;51.114;6.542;2023-12-07T01:59:41;35.97;;;15.57;;
1404;SDS011;697;51.114;6.542;2023-12-07T02:02:08;21.70;;;16.30;;
1404;SDS011;697;51.114;6.542;2023-12-07T02:04:36;21.87;;;14.80;;
1404;SDS011;697;51.114;6.542;2023-12-07T02:07:03;23.73;;;16.53;;
1404;SDS011;697;51.114;6.542;2023-12-07T02:09:31;26.77;;;16.77;;
1404;SDS011;697;51.114;6.542;2023-12-07T02:11:58;31.47;;;18.03;;
1404;SDS011;697;51.114;6.542;2023-12-07T02:14:25;22.20;;;15.70;;
1404;SDS011;697;51.114;6.542;2023-12-07T02:16:53;24.50;;;17.80;;
1404;SDS011;697;51.114;6.542;2023-12-07T02:19:33;25.13;;;17.73;;
1404;SDS011;697;51.114;6.542;2023-12-07T02:22:17;22.97;;;16.30;;
1404;SDS011;697;51.114;6.542;2023-12-07T02:24:51;22.63;;;15.33;;
1404;SDS011;697;51.114;6.542;2023-12-07T02:27:36;26.47;;;16.10;;
1404;SDS011;697;51.114;6.542;2023-12-07T02:30:04;25.53;;;15.93;;
1404;SDS011;697;51.114;6.542;2023-12-07T02:32:32;20.83;;;15.50;;
1404;SDS011;697;51.114;6.542;2023-12-07T02:34:58;22.57;;;16.27;;
1404;SDS011;697;51.114;6.542;2023-12-07T02:37:27;22.20;;;14.90;;
1404;SDS011;697;51.114;6.542;2023-12-07T02:39:56;19.80;;;14.57;;
1404;SDS011;697;51.114;6.542;2023-12-07T02:42:24;22.30;;;14.30;;
1404;SDS011;697;51.114;6.542;2023-12-07T02:44:53;25.90;;;16.67;;
1404;SDS011;697;51.114;6.542;2023-12-07T02:47:20;22.80;;;15.70;;
1404;SDS011;697;51.114;6.542;2023-12-07T02:49:47;24.53;;;17.53;;
1404;SDS011;697;51.114;6.542;2023-12-07T02:52:14;25.90;;;16.47;;
1404;SDS011;697;51.114;6.542;2023-12-07T02:54:40;29.23;;;17.43;;
1404;SDS011;697;51.114;6.542;2023-12-07T02:57:07;26.47;;;15.10;;
1404;SDS011;697;51.114;6.542;2023-12-07T02:59:34;31.53;;;17.23;;
1404;SDS011;697;51.114;6.542;2023-12-07T03:02:02;30.77;;;19.77;;
1404;SDS011;697;51.114;6.542;2023-12-07T03:04:29;29.00;;;17.90;;
1404;SDS011;697;51.114;6.542;2023-12-07T03:06:56;28.30;;;17.70;;
1404;SDS011;697;51.114;6.542;2023-12-07T03:09:23;28.20;;;17.40;;
1404;SDS011;697;51.114;6.542;2023-12-07T03:11:49;22.07;;;15.23;;
1404;SDS011;697;51.114;6.542;2023-12-07T03:14:16;26.63;;;16.50;;
1404;SDS011;697;51.114;6.542;2023-12-07T03:16:44;26.50;;;16.90;;
1404;SDS011;697;51.114;6.542;2023-12-07T03:19:13;31.80;;;16.67;;
1404;SDS011;697;51.114;6.542;2023-12-07T03:21:40;29.43;;;15.53;;
1404;SDS011;697;51.114;6.542;2023-12-07T03:24:09;23.70;;;16.13;;
1404;SDS011;697;51.114;6.542;2023-12-07T03:26:35;21.60;;;13.57;;
1404;SDS011;697;51.114;6.542;2023-12-07T03:29:03;30.30;;;16.17;;
1404;SDS011;697;51.114;6.542;2023-12-07T03:31:30;33.50;;;15.33;;
1404;SDS011;697;51.114;6.542;2023-12-07T03:33:56;20.33;;;14.27;;
1404;SDS011;697;51.114;6.542;2023-12-07T03:36:25;22.73;;;15.90;;
1404;SDS011;697;51.114;6.542;2023-12-07T03:38:52;21.13;;;14.40;;
1404;SDS011;697;51.114;6.542;2023-12-07T03:41:19;29.83;;;15.50;;
1404;SDS011;697;51.114;6.542;2023-12-07T03:43:45;33.43;;;17.77;;
1404;SDS011;697;51.114;6.542;2023-12-07T03:46:12;25.20;;;16.00;;
1404;SDS011;697;51.114;6.542;2023-12-07T03:48:39;31.07;;;18.13;;
1404;SDS011;697;51.114;6.542;2023-12-07T03:51:05;26.57;;;16.40;;
1404;SDS011;697;51.114;6.542;2023-12-07T03:53:33;26.40;;;14.70;;
1404;SDS011;697;51.114;6.542;2023-12-07T03:56:00;22.87;;;15.80;;
1404;SDS011;697;51.114;6.542;2023-12-07T03:58:27;21.93;;;13.70;;
1404;SDS011;697;51.114;6.542;2023-12-07T04:00:53;20.67;;;14.87;;
1404;SDS011;697;51.114;6.542;2023-12-07T04:03:20;18.63;;;15.57;;
1404;SDS011;697;51.114;6.542;2023-12-07T04:05:47;24.97;;;16.00;;
1404;SDS011;697;51.114;6.542;2023-12-07T04:08:13;31.30;;;19.30;;
1404;SDS011;697;51.114;6.542;2023-12-07T04:10:41;24.83;;;16.20;;
1404;SDS011;697;51.114;6.542;2023-12-07T04:13:08;24.17;;;16.47;;
1404;SDS011;697;51.114;6.542;2023-12-07T04:15:35;22.90;;;15.57;;
1404;SDS011;697;51.114;6.542;2023-12-07T04:18:02;25.00;;;16.13;;
1404;SDS011;697;51.114;6.542;2023-12-07T04:20:29;25.47;;;15.67;;
1404;SDS011;697;51.114;6.542;2023-12-07T04:22:55;23.13;;;17.13;;
1404;SDS011;697;51.114;6.542;2023-12-07T04:25:22;24.03;;;15.87;;
1404;SDS011;697;51.114;6.542;2023-12-07T04:27:50;22.63;;;14.57;;
1404;SDS011;697;51.114;6.542;2023-12-07T04:30:17;26.03;;;16.23;;
1404;SDS011;697;51.114;6.542;2023-12-07T04:32:43;26.23;;;16.90;;
1404;SDS011;697;51.114;6.542;2023-12-07T04:35:10;20.60;;;14.60;;
1404;SDS011;697;51.114;6.542;2023-12-07T04:37:37;20.10;;;15.63;;
1404;SDS011;697;51.114;6.542;2023-12-07T04:40:04;22.23;;;14.10;;
1404;SDS011;697;51.114;6.542;2023-12-07T04:42:32;23.83;;;13.80;;
1404;SDS011;697;51.114;6.542;2023-12-07T04:45:00;21.33;;;15.10;;
1404;SDS011;697;51.114;6.542;2023-12-07T04:47:26;25.80;;;15.67;;
1404;SDS011;697;51.114;6.542;2023-12-07T04:49:53;23.00;;;16.30;;
1404;SDS011;697;51.114;6.542;2023-12-07T04:52:20;27.23;;;16.40;;
1404;SDS011;697;51.114;6.542;2023-12-07T04:54:46;21.47;;;15.97;;
1404;SDS011;697;51.114;6.542;2023-12-07T04:57:13;23.13;;;15.80;;
1404;SDS011;697;51.114;6.542;2023-12-07T04:59:40;23.80;;;16.70;;
1404;SDS011;697;51.114;6.542;2023-12-07T05:02:13;25.67;;;16.27;;
1404;SDS011;697;51.114;6.542;2023-12-07T05:04:39;28.97;;;17.17;;
1404;SDS011;697;51.114;6.542;2023-12-07T05:07:06;23.00;;;15.57;;
1404;SDS011;697;51.114;6.542;2023-12-07T05:09:33;22.43;;;15.23;;
1404;SDS011;697;51.114;6.542;2023-12-07T05:11:59;19.90;;;14.30;;
1404;SDS011;697;51.114;6.542;2023-12-07T05:14:26;22.80;;;16.67;;
1404;SDS011;697;51.114;6.542;2023-12-07T05:16:53;27.83;;;16.10;;
1404;SDS011;697;51.114;6.542;2023-12-07T05:19:22;22.03;;;14.67;;
1404;SDS011;697;51.114;6.542;2023-12-07T05:21:48;25.33;;;15.03;;
1404;SDS011;697;51.114;6.542;2023-12-07T05:24:15;27.27;;;17.97;;
1404;SDS011;697;51.114;6.542;2023-12-07T05:26:42;24.83;;;15.17;;
1404;SDS011;697;51.114;6.542;2023-12-07T05:29:11;20.27;;;14.80;;
1404;SDS011;697;51.114;6.542;2023-12-07T05:31:38;23.23;;;16.30;;
1404;SDS011;697;51.114;6.542;2023-12-07T05:34:04;28.63;;;14.70;;
1404;SDS011;697;51.114;6.542;2023-12-07T05:36:32;22.47;;;15.03;;
1404;SDS011;697;51.114;6.542;2023-12-07T05:38:59;24.90;;;15.50;;
1404;SDS011;697;51.114;6.542;2023-12-07T05:41:26;22.60;;;15.73;;
1404;SDS011;697;51.114;6.542;2023-12-07T05:43:53;23.23;;;14.83;;
1404;SDS011;697;51.114;6.542;2023-12-07T05:46:20;27.47;;;16.37;;
1404;SDS011;697;51.114;6.542;2023-12-07T05:48:46;28.97;;;17.30;;
1404;SDS011;697;51.114;6.542;2023-12-07T05:51:13;33.33;;;19.03;;
1404;SDS011;697;51.114;6.542;2023-12-07T05:53:42;31.60;;;17.40;;
1404;SDS011;697;51.114;6.542;2023-12-07T05:56:09;32.70;;;17.87;;
1404;SDS011;697;51.114;6.542;2023-12-07T05:58:36;28.33;;;17.37;;
1404;SDS011;697;51.114;6.542;2023-12-07T06:01:03;24.97;;;17.30;;
1404;SDS011;697;51.114;6.542;2023-12-07T06:03:30;35.07;;;17.07;;
1404;SDS011;697;51.114;6.542;2023-12-07T06:05:57;25.87;;;16.43;;
1404;SDS011;697;51.114;6.542;2023-12-07T06:08:24;34.50;;;18.40;;
1404;SDS011;697;51.114;6.542;2023-12-07T06:10:52;29.73;;;18.40;;
1404;SDS011;697;51.114;6.542;2023-12-07T06:13:18;41.93;;;20.53;;
1404;SDS011;697;51.114;6.542;2023-12-07T06:15:45;39.17;;;19.40;;
1404;SDS011;697;51.114;6.542;2023-12-07T06:18:12;38.13;;;20.80;;
1404;SDS011;697;51.114;6.542;2023-12-07T06:20:38;38.67;;;20.20;;
1404;SDS011;697;51.114;6.542;2023-12-07T06:23:06;50.60;;;20.03;;
1404;SDS011;697;51.114;6.542;2023-12-07T06:25:37;33.27;;;20.10;;
1404;SDS011;697;51.114;6.542;2023-12-07T06:28:05;37.77;;;20.10;;
1404;SDS011;697;51.114;6.542;2023-12-07T06:30:32;31.73;;;19.30;;
1404;SDS011;697;51.114;6.542;2023-12-07T06:32:59;31.53;;;18.20;;
1404;SDS011;697;51.114;6.542;2023-12-07T06:35:26;32.23;;;19.47;;
1404;SDS011;697;51.114;6.542;2023-12-07T06:37:53;34.50;;;20.33;;
1404;SDS011;697;51.114;6.542;2023-12-07T06:40:20;35.93;;;20.10;;
1404;SDS011;697;51.114;6.542;2023-12-07T06:42:46;34.13;;;19.20;;
1404;SDS011;697;51.114;6.542;2023-12-07T06:45:15;29.00;;;17.83;;
1404;SDS011;697;51.114;6.542;2023-12-07T06:47:42;32.97;;;19.40;;
1404;SDS011;697;51.114;6.542;2023-12-07T06:50:09;30.37;;;19.27;;
1404;SDS011;697;51.114;6.542;2023-12-07T06:52:36;38.50;;;21.40;;
1404;SDS011;697;51.114;6.542;2023-12-07T06:55:03;35.10;;;20.10;;
1404;SDS011;697;51.114;6.542;2023-12-07T06:57:30;33.90;;;20.40;;
1404;SDS011;697;51.114;6.542;2023-12-07T06:59:57;38.77;;;19.17;;
1404;SDS011;697;51.114;6.542;2023-12-07T07:02:25;36.03;;;19.27;;
1404;SDS011;697;51.114;6.542;2023-12-07T07:04:52;36.43;;;20.90;;
1404;SDS011;697;51.114;6.542;2023-12-07T07:07:18;38.43;;;21.20;;
1404;SDS011;697;51.114;6.542;2023-12-07T07:09:45;29.10;;;19.27;;
1404;SDS011;697;51.114;6.542;2023-12-07T07:12:12;27.83;;;17.70;;
1404;SDS011;697;51.114;6.542;2023-12-07T07:14:39;27.60;;;19.00;;
1404;SDS011;697;51.114;6.542;2023-12-07T07:17:06;33.00;;;18.20;;
1404;SDS011;697;51.114;6.542;2023-12-07T07:19:34;31.37;;;19.57;;
1404;SDS011;697;51.114;6.542;2023-12-07T07:22:01;32.13;;;19.60;;
1404;SDS011;697;51.114;6.542;2023-12-07T07:24:27;26.67;;;18.17;;
1404;SDS011;697;51.114;6.542;2023-12-07T07:26:54;27.23;;;17.67;;
1404;SDS011;697;51.114;6.542;2023-12-07T07:29:20;27.37;;;17.90;;
1404;SDS011;697;51.114;6.542;2023-12-07T07:31:47;22.00;;;15.63;;
1404;SDS011;697;51.114;6.542;2023-12-07T07:34:14;27.40;;;16.43;;
1404;SDS011;697;51.114;6.542;2023-12-07T07:36:42;26.40;;;17.63;;
1404;SDS011;697;51.114;6.542;2023-12-07T07:39:09;23.80;;;15.83;;
1404;SDS011;697;51.114;6.542;2023-12-07T07:41:38;24.83;;;16.30;;
1404;SDS011;697;51.114;6.542;2023-12-07T07:44:05;28.37;;;16.73;;
1404;SDS011;697;51.114;6.542;2023-12-07T07:46:32;24.60;;;16.33;;
1404;SDS011;697;51.114;6.542;2023-12-07T07:48:58;25.43;;;15.03;;
1404;SDS011;697;51.114;6.542;2023-12-07T07:51:25;25.47;;;15.50;;
1404;SDS011;697;51.114;6.542;2023-12-07T07:53:53;26.20;;;17.13;;
1404;SDS011;697;51.114;6.542;2023-12-07T07:56:20;26.53;;;17.67;;
1404;SDS011;697;51.114;6.542;2023-12-07T07:58:47;28.33;;;17.47;;
1404;SDS011;697;51.114;6.542;2023-12-07T08:01:13;25.27;;;16.03;;
1404;SDS011;697;51.114;6.542;2023-12-07T08:03:40;24.67;;;17.50;;
1404;SDS011;697;51.114;6.542;2023-12-07T08:06:07;30.03;;;16.70;;
1404;SDS011;697;51.114;6.542;2023-12-07T08:08:34;25.70;;;16.67;;
1404;SDS011;697;51.114;6.542;2023-12-07T08:11:02;22.80;;;16.20;;
1404;SDS011;697;51.114;6.542;2023-12-07T08:13:30;27.80;;;17.27;;
1404;SDS011;697;51.114;6.542;2023-12-07T08:15:57;25.10;;;15.17;;
1404;SDS011;697;51.114;6.542;2023-12-07T08:18:23;28.13;;;14.97;;
1404;SDS011;697;51.114;6.542;2023-12-07T08:20:50;24.30;;;14.90;;
1404;SDS011;697;51.114;6.542;2023-12-07T08:23:17;19.03;;;13.30;;
1404;SDS011;697;51.114;6.542;2023-12-07T08:25:44;21.37;;;13.53;;
1404;SDS011;697;51.114;6.542;2023-12-07T08:28:12;21.13;;;12.90;;
1404;SDS011;697;51.114;6.542;2023-12-07T08:30:39;22.23;;;14.13;;
1404;SDS011;697;51.114;6.542;2023-12-07T08:33:06;27.50;;;13.50;;
1404;SDS011;697;51.114;6.542;2023-12-07T08:35:32;19.50;;;13.10;;
1404;SDS011;697;51.114;6.542;2023-12-07T08:37:59;23.60;;;14.13;;
1404;SDS011;697;51.114;6.542;2023-12-07T08:40:26;20.33;;;13.30;;
1404;SDS011;697;51.114;6.542;2023-12-07T08:42:54;20.20;;;13.10;;
1404;SDS011;697;51.114;6.542;2023-12-07T08:45:22;18.07;;;13.30;;
1404;SDS011;697;51.114;6.542;2023-12-07T08:47:49;18.80;;;13.10;;
1404;SDS011;697;51.114;6.542;2023-12-07T08:50:16;20.23;;;12.93;;
1404;SDS011;697;51.114;6.542;2023-12-07T08:52:43;19.33;;;14.10;;
1404;SDS011;697;51.114;6.542;2023-12-07T08:55:09;20.80;;;13.33;;
1404;SDS011;697;51.114;6.542;2023-12-07T08:57:36;17.80;;;12.07;;
1404;SDS011;697;51.114;6.542;2023-12-07T09:00:03;16.97;;;13.00;;
1404;SDS011;697;51.114;6.542;2023-12-07T09:02:32;19.83;;;13.43;;
1404;SDS011;697;51.114;6.542;2023-12-07T09:04:58;18.93;;;14.00;;
1404;SDS011;697;51.114;6.542;2023-12-07T09:07:25;22.40;;;14.20;;
1404;SDS011;697;51.114;6.542;2023-12-07T09:09:52;18.00;;;13.13;;
1404;SDS011;697;51.114;6.542;2023-12-07T09:12:19;18.60;;;12.57;;
1404;SDS011;697;51.114;6.542;2023-12-07T09:14:45;17.57;;;12.80;;
1404;SDS011;697;51.114;6.542;2023-12-07T09:17:12;18.27;;;12.87;;
1404;SDS011;697;51.114;6.542;2023-12-07T09:19:41;19.77;;;13.37;;
1404;SDS011;697;51.114;6.542;2023-12-07T09:22:10;16.50;;;12.40;;
1404;SDS011;697;51.114;6.542;2023-12-07T09:24:38;20.07;;;12.50;;
1404;SDS011;697;51.114;6.542;2023-12-07T09:27:06;16.53;;;11.70;;
1404;SDS011;697;51.114;6.542;2023-12-07T09:29:32;19.53;;;13.13;;
1404;SDS011;697;51.114;6.542;2023-12-07T09:31:59;16.63;;;12.37;;
1404;SDS011;697;51.114;6.542;2023-12-07T09:34:26;18.00;;;12.37;;
1404;SDS011;697;51.114;6.542;2023-12-07T09:37:06;15.60;;;12.37;;
1404;SDS011;697;51.114;6.542;2023-12-07T09:39:33;18.30;;;12.73;;
1404;SDS011;697;51.114;6.542;2023-12-07T09:42:00;18.57;;;13.00;;
1404;SDS011;697;51.114;6.542;2023-12-07T09:44:27;19.13;;;11.20;;
1404;SDS011;697;51.114;6.542;2023-12-07T09:46:54;15.40;;;12.00;;
1404;SDS011;697;51.114;6.542;2023-12-07T09:49:21;16.27;;;12.37;;
1404;SDS011;697;51.114;6.542;2023-12-07T09:51:47;15.47;;;11.83;;
1404;SDS011;697;51.114;6.542;2023-12-07T09:54:18;16.43;;;12.33;;
1404;SDS011;697;51.114;6.542;2023-12-07T09:56:47;16.60;;;11.80;;
1404;SDS011;697;51.114;6.542;2023-12-07T09:59:16;18.80;;;12.07;;
1404;SDS011;697;51.114;6.542;2023-12-07T10:01:43;16.60;;;11.87;;
1404;SDS011;697;51.114;6.542;2023-12-07T10:04:16;20.40;;;12.70;;
1404;SDS011;697;51.114;6.542;2023-12-07T10:06:44;18.37;;;12.20;;
1404;SDS011;697;51.114;6.542;2023-12-07T10:09:12;16.80;;;12.27;;
1404;SDS011;697;51.114;6.542;2023-12-07T10:11:41;16.43;;;11.63;;
1404;SDS011;697;51.114;6.542;2023-12-07T10:14:08;14.73;;;10.80;;
1404;SDS011;697;51.114;6.542;2023-12-07T10:16:35;17.27;;;12.03;;
1404;SDS011;697;51.114;6.542;2023-12-07T10:19:12;14.93;;;11.53;;
1404;SDS011;697;51.114;6.542;2023-12-07T10:21:39;16.20;;;11.80;;
1404;SDS011;697;51.114;6.542;2023-12-07T10:24:07;16.30;;;12.90;;
1404;SDS011;697;51.114;6.542;2023-12-07T10:26:35;21.73;;;12.73;;
1404;SDS011;697;51.114;6.542;2023-12-07T10:29:03;14.60;;;11.10;;
1404;SDS011;697;51.114;6.542;2023-12-07T10:31:31;15.67;;;10.43;;
1404;SDS011;697;51.114;6.542;2023-12-07T10:33:58;13.10;;;10.30;;
1404;SDS011;697;51.114;6.542;2023-12-07T10:36:25;14.23;;;10.50;;
1404;SDS011;697;51.114;6.542;2023-12-07T10:38:52;16.07;;;11.83;;
1404;SDS011;697;51.114;6.542;2023-12-07T10:41:19;15.90;;;11.20;;
1404;SDS011;697;51.114;6.542;2023-12-07T10:43:48;17.33;;;10.90;;
1404;SDS011;697;51.114;6.542;2023-12-07T10:46:19;13.20;;;10.20;;
1404;SDS011;697;51.114;6.542;2023-12-07T10:48:47;19.43;;;11.17;;
1404;SDS011;697;51.114;6.542;2023-12-07T10:51:16;17.57;;;13.27;;
1404;SDS011;697;51.114;6.542;2023-12-07T10:53:46;20.07;;;12.30;;
1404;SDS011;697;51.114;6.542;2023-12-07T10:56:19;18.67;;;12.97;;
1404;SDS011;697;51.114;6.542;2023-12-07T10:58:54;16.80;;;13.50;;
1404;SDS011;697;51.114;6.542;2023-12-07T11:01:23;20.00;;;16.50;;
1404;SDS011;697;51.114;6.542;2023-12-07T11:03:50;21.33;;;14.73;;
1404;SDS011;697;51.114;6.542;2023-12-07T11:06:19;23.63;;;14.77;;
1404;SDS011;697;51.114;6.542;2023-12-07T11:08:46;19.93;;;14.43;;
1404;SDS011;697;51.114;6.542;2023-12-07T11:11:20;19.60;;;13.70;;
1404;SDS011;697;51.114;6.542;2023-12-07T11:13:52;19.63;;;14.57;;
1404;SDS011;697;51.114;6.542;2023-12-07T11:16:31;15.87;;;13.07;;
1404;SDS011;697;51.114;6.542;2023-12-07T11:18:58;19.23;;;14.17;;
1404;SDS011;697;51.114;6.542;2023-12-07T11:21:25;14.43;;;12.90;;
1404;SDS011;697;51.114;6.542;2023-12-07T11:23:52;15.73;;;13.20;;
1404;SDS011;697;51.114;6.542;2023-12-07T11:26:20;15.10;;;13.10;;
1404;SDS011;697;51.114;6.542;2023-12-07T11:28:48;15.50;;;12.77;;
1404;SDS011;697;51.114;6.542;2023-12-07T11:31:15;14.73;;;13.00;;
1404;SDS011;697;51.114;6.542;2023-12-07T11:33:43;19.83;;;14.90;;
1404;SDS011;697;51.114;6.542;2023-12-07T11:36:10;15.27;;;12.90;;
1404;SDS011;697;51.114;6.542;2023-12-07T11:38:38;16.40;;;12.40;;
1404;SDS011;697;51.114;6.542;2023-12-07T11:41:43;17.63;;;12.10;;
1404;SDS011;697;51.114;6.542;2023-12-07T11:44:10;16.30;;;11.80;;
1404;SDS011;697;51.114;6.542;2023-12-07T11:46:37;17.17;;;13.07;;
1404;SDS011;697;51.114;6.542;2023-12-07T11:49:05;13.97;;;11.33;;
1404;SDS011;697;51.114;6.542;2023-12-07T11:51:35;13.67;;;10.57;;
1404;SDS011;697;51.114;6.542;2023-12-07T11:54:02;13.73;;;10.90;;
1404;SDS011;697;51.114;6.542;2023-12-07T11:56:29;13.20;;;11.53;;
1404;SDS011;697;51.114;6.542;2023-12-07T11:58:56;13.60;;;11.07;;
1404;SDS011;697;51.114;6.542;2023-12-07T12:01:24;13.03;;;11.13;;
1404;SDS011;697;51.114;6.542;2023-12-07T12:03:53;11.90;;;10.70;;
1404;SDS011;697;51.114;6.542;2023-12-07T12:06:23;12.07;;;10.43;;
1404;SDS011;697;51.114;6.542;2023-12-07T12:08:51;12.63;;;10.90;;
1404;SDS011;697;51.114;6.542;2023-12-07T12:11:18;11.70;;;10.50;;
1404;SDS011;697;51.114;6.542;2023-12-07T12:13:45;14.10;;;10.63;;
1404;SDS011;697;51.114;6.542;2023-12-07T12:16:12;15.77;;;10.57;;
1404;SDS011;697;51.114;6.542;2023-12-07T12:18:39;14.60;;;11.13;;
1404;SDS011;697;51.114;6.542;2023-12-07T12:21:06;12.37;;;10.93;;
1404;SDS011;697;51.114;6.542;2023-12-07T12:23:36;12.53;;;11.30;;
1404;SDS011;697;51.114;6.542;2023-12-07T12:26:04;12.17;;;10.87;;
1404;SDS011;697;51.114;6.542;2023-12-07T12:28:32;13.40;;;11.40;;
1404;SDS011;697;51.114;6.542;2023-12-07T12:31:03;10.90;;;9.70;;
1404;SDS011;697;51.114;6.542;2023-12-07T12:33:30;12.23;;;10.03;;
1404;SDS011;697;51.114;6.542;2023-12-07T12:36:03;12.17;;;10.30;;
1404;SDS011;697;51.114;6.542;2023-12-07T12:38:32;11.50;;;10.30;;
1404;SDS011;697;51.114;6.542;2023-12-07T12:41:01;12.30;;;10.73;;
1404;SDS011;697;51.114;6.542;2023-12-07T12:43:28;11.77;;;9.90;;
1404;SDS011;697;51.114;6.542;2023-12-07T12:45:57;12.27;;;10.00;;
1404;SDS011;697;51.114;6.542;2023-12-07T12:48:23;12.30;;;10.17;;
1404;SDS011;697;51.114;6.542;2023-12-07T12:50:50;11.63;;;9.90;;
1404;SDS011;697;51.114;6.542;2023-12-07T12:53:17;12.13;;;9.90;;
1404;SDS011;697;51.114;6.542;2023-12-07T12:55:43;11.77;;;10.20;;
1404;SDS011;697;51.114;6.542;2023-12-07T12:58:14;12.50;;;11.30;;
1404;SDS011;697;51.114;6.542;2023-12-07T13:00:42;11.53;;;10.43;;
1404;SDS011;697;51.114;6.542;2023-12-07T13:03:09;12.23;;;10.57;;
1404;SDS011;697;51.114;6.542;2023-12-07T13:05:38;12.90;;;10.43;;
1404;SDS011;697;51.114;6.542;2023-12-07T13:08:05;12.07;;;10.33;;
1404;SDS011;697;51.114;6.542;2023-12-07T13:10:31;11.23;;;9.83;;
1404;SDS011;697;51.114;6.542;2023-12-07T13:13:00;12.30;;;11.00;;
1404;SDS011;697;51.114;6.542;2023-12-07T13:15:29;14.60;;;10.90;;
1404;SDS011;697;51.114;6.542;2023-12-07T13:17:56;12.80;;;11.20;;
1404;SDS011;697;51.114;6.542;2023-12-07T13:20:22;12.40;;;10.93;;
1404;SDS011;697;51.114;6.542;2023-12-07T13:22:49;13.20;;;10.90;;
1404;SDS011;697;51.114;6.542;2023-12-07T13:25:16;12.90;;;11.30;;
1404;SDS011;697;51.114;6.542;2023-12-07T13:27:43;14.30;;;11.60;;
1404;SDS011;697;51.114;6.542;2023-12-07T13:30:09;13.63;;;12.03;;
1404;SDS011;697;51.114;6.542;2023-12-07T13:32:38;14.17;;;11.67;;
1404;SDS011;697;51.114;6.542;2023-12-07T13:35:05;13.43;;;12.00;;
1404;SDS011;697;51.114;6.542;2023-12-07T13:37:33;15.33;;;11.30;;
1404;SDS011;697;51.114;6.542;2023-12-07T13:40:01;14.93;;;12.20;;
1404;SDS011;697;51.114;6.542;2023-12-07T13:42:29;13.73;;;9.40;;
1404;SDS011;697;51.114;6.542;2023-12-07T13:44:57;13.17;;;10.20;;
1404;SDS011;697;51.114;6.542;2023-12-07T13:47:25;13.90;;;11.50;;
1404;SDS011;697;51.114;6.542;2023-12-07T13:49:57;13.87;;;10.47;;
1404;SDS011;697;51.114;6.542;2023-12-07T13:52:25;15.00;;;10.77;;
1404;SDS011;697;51.114;6.542;2023-12-07T13:54:53;12.40;;;9.40;;
1404;SDS011;697;51.114;6.542;2023-12-07T13:57:21;10.67;;;9.00;;
1404;SDS011;697;51.114;6.542;2023-12-07T13:59:49;16.13;;;10.73;;
1404;SDS011;697;51.114;6.542;2023-12-07T14:02:16;12.37;;;10.73;;
1404;SDS011;697;51.114;6.542;2023-12-07T14:04:43;12.40;;;10.50;;
1404;SDS011;697;51.114;6.542;2023-12-07T14:07:12;14.53;;;11.83;;
1404;SDS011;697;51.114;6.542;2023-12-07T14:09:40;13.93;;;11.60;;
1404;SDS011;697;51.114;6.542;2023-12-07T14:12:08;11.37;;;10.17;;
1404;SDS011;697;51.114;6.542;2023-12-07T14:14:36;11.13;;;9.37;;
1404;SDS011;697;51.114;6.542;2023-12-07T14:17:02;12.30;;;9.23;;
1404;SDS011;697;51.114;6.542;2023-12-07T14:19:29;15.57;;;10.37;;
1404;SDS011;697;51.114;6.542;2023-12-07T14:21:56;14.40;;;10.40;;
1404;SDS011;697;51.114;6.542;2023-12-07T14:24:24;11.90;;;10.63;;
1404;SDS011;697;51.114;6.542;2023-12-07T14:26:51;14.80;;;10.43;;
1404;SDS011;697;51.114;6.542;2023-12-07T14:29:19;12.03;;;10.83;;
1404;SDS011;697;51.114;6.542;2023-12-07T14:31:47;16.13;;;10.67;;
1404;SDS011;697;51.114;6.542;2023-12-07T14:34:14;13.87;;;11.20;;
1404;SDS011;697;51.114;6.542;2023-12-07T14:36:41;14.87;;;11.10;;
1404;SDS011;697;51.114;6.542;2023-12-07T14:39:09;10.97;;;9.87;;
1404;SDS011;697;51.114;6.542;2023-12-07T14:41:43;19.60;;;9.50;;
1404;SDS011;697;51.114;6.542;2023-12-07T14:44:11;12.30;;;10.20;;
1404;SDS011;697;51.114;6.542;2023-12-07T14:46:38;15.03;;;10.87;;
1404;SDS011;697;51.114;6.542;2023-12-07T14:49:06;11.47;;;9.53;;
1404;SDS011;697;51.114;6.542;2023-12-07T14:51:33;12.67;;;9.00;;
1404;SDS011;697;51.114;6.542;2023-12-07T14:54:00;12.70;;;10.03;;
1404;SDS011;697;51.114;6.542;2023-12-07T14:56:27;10.20;;;8.80;;
1404;SDS011;697;51.114;6.542;2023-12-07T14:58:55;12.40;;;9.30;;
1404;SDS011;697;51.114;6.542;2023-12-07T15:01:23;13.77;;;9.77;;
1404;SDS011;697;51.114;6.542;2023-12-07T15:03:50;13.57;;;10.20;;
1404;SDS011;697;51.114;6.542;2023-12-07T15:06:17;15.03;;;9.23;;